Time;durP1;ratioP1;P1;durP2;ratioP2;P2;SDS_P1;SDS_P2;PMS_P1;PMS_P2;Temp;Humidity;BMP_temperature;BMP_pressure;BME280_temperature;BME280_humidity;BME280_pressure;Samples;Min_cycle;Max_cycle;Signal;HPM_P1;HPM_P2
2022/12/20 00:01:43;;;;;;;66.53;24.17;;;;;;;;;;6184776;23;20148;-93
2022/12/20 00:04:49;;;;;;;59.47;22.43;;;;;;;;;;6186452;23;20219;-91
2022/12/20 00:07:55;;;;;;;59.93;21.03;;;;;;;;;;6186965;23;20163;-92
2022/12/20 00:11:01;;;;;;;61.50;22.77;;;;;;;;;;6186345;23;20243;-90
2022/12/20 00:14:06;;;;;;;59.27;22.30;;;;;;;;;;6188145;23;20536;-90
2022/12/20 00:17:12;;;;;;;63.83;22.03;;;;;;;;;;6187277;23;20216;-90
2022/12/20 00:20:17;;;;;;;55.40;22.17;;;;;;;;;;6187703;23;20155;-90
2022/12/20 00:23:23;;;;;;;54.77;20.93;;;;;;;;;;6187661;23;20292;-93
2022/12/20 00:26:30;;;;;;;59.67;22.33;;;;;;;;;;6186283;23;20294;-92
2022/12/20 00:29:35;;;;;;;55.97;21.20;;;;;;;;;;6188984;23;20191;-93
2022/12/20 00:32:41;;;;;;;55.33;21.23;;;;;;;;;;6187151;23;20172;-90
2022/12/20 00:35:47;;;;;;;56.97;21.27;;;;;;;;;;6187921;23;20192;-90
2022/12/20 00:38:55;;;;;;;57.37;21.50;;;;;;;;;;6188601;23;20267;-91
2022/12/20 00:42:01;;;;;;;56.90;22.13;;;;;;;;;;6188223;23;20180;-91
2022/12/20 00:45:29;;;;;;;54.10;21.00;;;;;;;;;;6187547;23;20160;-91
2022/12/20 00:48:35;;;;;;;51.57;19.23;;;;;;;;;;6186759;23;20164;-90
2022/12/20 00:51:41;;;;;;;55.43;20.93;;;;;;;;;;6187213;23;20160;-92
2022/12/20 00:54:48;;;;;;;53.83;21.07;;;;;;;;;;6187061;23;20268;-90
2022/12/20 00:57:52;;;;;;;56.73;20.90;;;;;;;;;;6184607;23;20167;-88
2022/12/20 01:00:58;;;;;;;49.70;19.47;;;;;;;;;;6185074;23;20207;-91
2022/12/20 01:04:03;;;;;;;58.83;21.07;;;;;;;;;;6184201;23;20304;-91
2022/12/20 01:07:10;;;;;;;53.20;20.73;;;;;;;;;;6186248;23;20151;-93
2022/12/20 01:10:17;;;;;;;59.23;22.63;;;;;;;;;;6187598;23;20199;-91
2022/12/20 01:13:22;;;;;;;53.43;21.77;;;;;;;;;;6201505;23;20260;-89
2022/12/20 01:16:29;;;;;;;57.03;21.57;;;;;;;;;;6183960;23;20171;-92
2022/12/20 01:19:34;;;;;;;56.23;21.57;;;;;;;;;;6182960;23;20204;-89
2022/12/20 01:22:40;;;;;;;60.87;22.47;;;;;;;;;;6185150;23;20226;-90
2022/12/20 01:25:46;;;;;;;58.97;21.07;;;;;;;;;;6184935;23;20211;-89
2022/12/20 01:28:54;;;;;;;59.67;23.17;;;;;;;;;;6184981;23;20168;-93
2022/12/20 01:31:59;;;;;;;55.40;21.00;;;;;;;;;;6184675;23;20225;-88
2022/12/20 01:35:04;;;;;;;51.77;22.23;;;;;;;;;;6183711;23;20171;-88
2022/12/20 01:38:10;;;;;;;60.57;22.57;;;;;;;;;;6184678;23;20195;-89
2022/12/20 01:41:18;;;;;;;65.57;21.53;;;;;;;;;;6184232;23;20555;-92
2022/12/20 01:44:42;;;;;;;56.53;21.27;;;;;;;;;;6184758;23;20287;-91
2022/12/20 01:47:47;;;;;;;50.27;20.33;;;;;;;;;;6182563;23;20172;-90
2022/12/20 01:50:53;;;;;;;51.43;19.90;;;;;;;;;;6181036;23;20217;-93
2022/12/20 01:54:01;;;;;;;56.03;21.20;;;;;;;;;;6182873;23;20224;-90
2022/12/20 01:57:11;;;;;;;54.50;19.83;;;;;;;;;;6183694;23;20204;-93
2022/12/20 02:00:17;;;;;;;62.37;21.20;;;;;;;;;;6183671;23;20167;-91
2022/12/20 02:03:22;;;;;;;61.97;22.07;;;;;;;;;;6182493;23;20242;-92
2022/12/20 02:06:28;;;;;;;58.10;21.77;;;;;;;;;;6180230;23;20171;-90
2022/12/20 02:09:35;;;;;;;55.53;20.27;;;;;;;;;;6181018;23;20175;-89
2022/12/20 02:12:42;;;;;;;51.37;20.03;;;;;;;;;;6180532;23;20167;-92
2022/12/20 02:15:51;;;;;;;55.77;20.67;;;;;;;;;;6181367;23;20260;-90
2022/12/20 02:19:00;;;;;;;55.50;19.97;;;;;;;;;;6180695;23;20179;-92
2022/12/20 02:22:15;;;;;;;56.33;20.87;;;;;;;;;;6179723;23;20156;-90
2022/12/20 02:25:37;;;;;;;53.17;19.77;;;;;;;;;;6180870;23;20147;-90
2022/12/20 02:28:54;;;;;;;50.40;19.77;;;;;;;;;;6181925;23;20168;-92
2022/12/20 02:32:03;;;;;;;59.60;21.07;;;;;;;;;;6182118;23;20171;-91
2022/12/20 02:35:10;;;;;;;54.50;20.67;;;;;;;;;;6180922;23;20164;-94
2022/12/20 02:38:26;;;;;;;54.67;20.77;;;;;;;;;;6180064;23;20251;-89
2022/12/20 02:41:34;;;;;;;59.30;22.27;;;;;;;;;;6180911;23;20200;-92
2022/12/20 02:48:20;;;;;;;51.90;20.17;;;;;;;;;;6179621;23;20163;-92
2022/12/20 02:51:27;;;;;;;52.43;19.77;;;;;;;;;;6180332;23;20195;-91
2022/12/20 02:54:32;;;;;;;59.53;21.87;;;;;;;;;;6180834;23;20172;-93
2022/12/20 02:57:40;;;;;;;58.43;21.73;;;;;;;;;;6181161;23;20211;-92
2022/12/20 03:00:48;;;;;;;55.33;21.17;;;;;;;;;;6182228;23;20168;-91
2022/12/20 03:03:55;;;;;;;56.23;22.00;;;;;;;;;;6179751;23;20288;-89
2022/12/20 03:07:01;;;;;;;57.73;20.13;;;;;;;;;;6181559;23;20223;-90
2022/12/20 03:10:07;;;;;;;57.70;20.43;;;;;;;;;;6179708;23;20212;-92
2022/12/20 03:13:12;;;;;;;49.10;19.90;;;;;;;;;;6179934;23;20171;-91
2022/12/20 03:16:25;;;;;;;54.13;20.07;;;;;;;;;;6180845;23;20168;-90
2022/12/20 03:19:32;;;;;;;55.93;20.67;;;;;;;;;;6179268;23;20175;-90
2022/12/20 03:22:37;;;;;;;55.37;20.77;;;;;;;;;;6180572;23;20176;-91
2022/12/20 03:25:42;;;;;;;61.87;21.50;;;;;;;;;;6180103;23;20176;-93
2022/12/20 03:28:51;;;;;;;60.07;22.23;;;;;;;;;;6179018;23;20288;-93
2022/12/20 03:31:59;;;;;;;52.87;21.57;;;;;;;;;;6181038;23;20171;-92
2022/12/20 03:35:07;;;;;;;61.17;21.83;;;;;;;;;;6178651;23;20163;-93
2022/12/20 03:38:15;;;;;;;54.80;21.60;;;;;;;;;;6180421;23;20191;-93
2022/12/20 03:41:22;;;;;;;57.57;21.20;;;;;;;;;;6181910;23;20243;-91
2022/12/20 03:44:27;;;;;;;54.00;19.93;;;;;;;;;;6178464;23;20163;-90
2022/12/20 03:47:33;;;;;;;53.83;20.40;;;;;;;;;;6179424;23;20171;-93
2022/12/20 03:50:40;;;;;;;51.53;19.97;;;;;;;;;;6178056;23;20194;-92
2022/12/20 03:53:46;;;;;;;58.00;20.10;;;;;;;;;;6180603;23;20152;-89
2022/12/20 03:56:53;;;;;;;61.30;20.77;;;;;;;;;;6181059;23;20172;-91
2022/12/20 03:59:59;;;;;;;52.70;21.07;;;;;;;;;;6179048;23;20168;-91
2022/12/20 04:03:05;;;;;;;54.37;19.20;;;;;;;;;;6180347;23;20151;-90
2022/12/20 04:06:11;;;;;;;59.07;22.37;;;;;;;;;;6179924;23;20207;-90
2022/12/20 04:09:17;;;;;;;66.77;22.20;;;;;;;;;;6182134;23;20155;-89
2022/12/20 04:12:27;;;;;;;66.33;22.47;;;;;;;;;;6181783;23;20176;-91
2022/12/20 04:15:32;;;;;;;57.93;21.77;;;;;;;;;;6181279;23;20166;-90
2022/12/20 04:18:37;;;;;;;58.20;20.90;;;;;;;;;;6183345;23;20758;-90
2022/12/20 04:21:44;;;;;;;52.87;20.13;;;;;;;;;;6183200;23;20167;-91
2022/12/20 04:24:50;;;;;;;55.13;19.97;;;;;;;;;;6183248;23;20231;-92
2022/12/20 04:28:00;;;;;;;57.93;20.90;;;;;;;;;;6183224;23;20219;-91
2022/12/20 04:31:05;;;;;;;57.77;20.77;;;;;;;;;;6182884;23;20278;-90
2022/12/20 04:34:14;;;;;;;58.47;20.63;;;;;;;;;;6184902;23;20237;-91
2022/12/20 04:37:21;;;;;;;66.13;23.37;;;;;;;;;;6183811;23;20204;-91
2022/12/20 04:40:31;;;;;;;58.87;21.50;;;;;;;;;;6185055;23;20164;-91
2022/12/20 04:43:38;;;;;;;60.37;22.40;;;;;;;;;;6183716;23;20167;-91
2022/12/20 04:46:44;;;;;;;59.80;21.83;;;;;;;;;;6183247;23;20219;-87
2022/12/20 04:49:53;;;;;;;55.33;20.17;;;;;;;;;;6183220;23;20176;-90
2022/12/20 04:56:24;;;;;;;61.97;21.23;;;;;;;;;;6185285;23;20171;-93
2022/12/20 04:59:29;;;;;;;60.67;20.43;;;;;;;;;;6184921;23;20220;-93
2022/12/20 05:02:37;;;;;;;56.90;21.30;;;;;;;;;;6185355;23;20172;-92
2022/12/20 05:05:47;;;;;;;48.40;19.30;;;;;;;;;;6185622;23;20211;-90
2022/12/20 05:08:54;;;;;;;57.67;22.03;;;;;;;;;;6184531;23;20172;-91
2022/12/20 05:12:00;;;;;;;57.93;20.30;;;;;;;;;;6186524;23;20195;-91
2022/12/20 05:15:06;;;;;;;60.77;22.03;;;;;;;;;;6184129;23;20615;-91
2022/12/20 05:18:11;;;;;;;59.00;21.30;;;;;;;;;;6185493;23;20167;-90
2022/12/20 05:28:17;;;;;;;51.93;21.00;;;;;;;;;;6186241;23;20259;-92
2022/12/20 05:31:22;;;;;;;58.30;20.73;;;;;;;;;;6185001;23;20699;-89
2022/12/20 05:34:27;;;;;;;63.47;21.00;;;;;;;;;;6185836;23;20216;-90
2022/12/20 05:37:34;;;;;;;60.93;21.93;;;;;;;;;;6186042;23;20179;-89
2022/12/20 05:40:51;;;;;;;63.67;22.47;;;;;;;;;;6185798;23;20168;-92
2022/12/20 05:43:57;;;;;;;59.03;22.03;;;;;;;;;;6185756;23;20164;-93
2022/12/20 05:47:03;;;;;;;61.30;22.47;;;;;;;;;;6183544;23;20191;-89
2022/12/20 05:50:12;;;;;;;59.37;22.07;;;;;;;;;;6184556;23;20168;-92
2022/12/20 05:53:37;;;;;;;69.27;24.30;;;;;;;;;;6203139;23;20164;-91
2022/12/20 05:56:46;;;;;;;59.27;21.40;;;;;;;;;;6185543;23;20193;-91
2022/12/20 05:59:51;;;;;;;58.23;21.60;;;;;;;;;;6185579;23;20223;-92
2022/12/20 06:03:00;;;;;;;66.53;21.30;;;;;;;;;;6185669;23;20635;-92
2022/12/20 06:06:07;;;;;;;56.00;20.37;;;;;;;;;;6185234;23;20172;-90
2022/12/20 06:09:12;;;;;;;60.40;22.33;;;;;;;;;;6187499;23;20163;-91
2022/12/20 06:12:25;;;;;;;58.23;20.90;;;;;;;;;;6186692;23;20192;-92
2022/12/20 06:15:31;;;;;;;62.87;22.70;;;;;;;;;;6183926;23;20151;-92
2022/12/20 06:18:38;;;;;;;63.17;21.10;;;;;;;;;;6185633;23;20215;-90
2022/12/20 06:21:44;;;;;;;57.53;21.27;;;;;;;;;;6186721;23;20196;-89
2022/12/20 06:24:53;;;;;;;66.10;22.27;;;;;;;;;;6186252;23;20151;-89
2022/12/20 06:28:07;;;;;;;58.17;21.37;;;;;;;;;;6185807;23;20212;-89
2022/12/20 06:31:13;;;;;;;64.57;27.63;;;;;;;;;;6185070;23;20495;-89
2022/12/20 06:34:22;;;;;;;60.63;23.33;;;;;;;;;;6184708;23;20230;-89
2022/12/20 06:40:48;;;;;;;68.70;22.97;;;;;;;;;;6186309;23;20192;-88
2022/12/20 06:43:54;;;;;;;61.77;22.07;;;;;;;;;;6184702;23;20176;-88
2022/12/20 06:47:06;;;;;;;62.90;22.23;;;;;;;;;;6184573;23;20168;-90
2022/12/20 06:50:12;;;;;;;63.60;21.83;;;;;;;;;;6183679;23;20172;-89
2022/12/20 06:53:17;;;;;;;64.10;22.83;;;;;;;;;;6185380;23;20188;-92
2022/12/20 06:56:22;;;;;;;57.23;21.37;;;;;;;;;;6186872;23;20164;-90
2022/12/20 06:59:29;;;;;;;60.60;22.33;;;;;;;;;;6184750;23;20179;-87
2022/12/20 07:05:54;;;;;;;69.47;23.73;;;;;;;;;;6203026;23;20172;-90
2022/12/20 07:08:59;;;;;;;69.53;23.93;;;;;;;;;;6185067;23;20172;-88
2022/12/20 07:12:05;;;;;;;66.03;23.23;;;;;;;;;;6182317;23;20200;-89
2022/12/20 07:15:12;;;;;;;70.80;24.03;;;;;;;;;;6183750;23;20215;-89
2022/12/20 07:18:17;;;;;;;68.97;24.90;;;;;;;;;;6184748;23;20219;-91
2022/12/20 07:21:23;;;;;;;71.23;23.23;;;;;;;;;;6184624;23;20172;-88
2022/12/20 07:24:28;;;;;;;62.27;22.07;;;;;;;;;;6184139;23;20482;-87
2022/12/20 07:27:33;;;;;;;67.57;23.67;;;;;;;;;;6183199;23;20155;-88
2022/12/20 07:30:40;;;;;;;67.77;24.57;;;;;;;;;;6183835;23;20203;-87
2022/12/20 07:33:52;;;;;;;81.37;26.27;;;;;;;;;;6184262;23;20168;-88
2022/12/20 07:36:57;;;;;;;71.73;25.97;;;;;;;;;;6183926;23;20179;-89
2022/12/20 07:40:03;;;;;;;73.70;24.97;;;;;;;;;;6186739;23;20188;-90
2022/12/20 07:43:10;;;;;;;73.83;25.53;;;;;;;;;;6183109;23;20223;-87
2022/12/20 07:46:17;;;;;;;71.80;25.13;;;;;;;;;;6184249;23;20212;-91
2022/12/20 07:49:23;;;;;;;69.73;24.47;;;;;;;;;;6183738;23;20168;-92
2022/12/20 07:52:29;;;;;;;73.27;24.47;;;;;;;;;;6183351;23;20195;-91
2022/12/20 07:55:35;;;;;;;76.00;25.90;;;;;;;;;;6185325;23;20172;-88
2022/12/20 07:58:41;;;;;;;66.70;24.20;;;;;;;;;;6183985;23;20219;-89
2022/12/20 08:01:50;;;;;;;63.13;23.07;;;;;;;;;;6185204;23;20155;-90
2022/12/20 08:04:57;;;;;;;67.00;23.87;;;;;;;;;;6185783;23;20179;-91
2022/12/20 08:08:02;;;;;;;65.07;22.13;;;;;;;;;;6186096;23;20167;-88
2022/12/20 08:11:09;;;;;;;65.93;23.53;;;;;;;;;;6183273;23;20190;-92
2022/12/20 08:14:14;;;;;;;65.43;23.27;;;;;;;;;;6184316;23;20160;-89
2022/12/20 08:17:21;;;;;;;68.53;24.57;;;;;;;;;;6185007;23;20159;-90
2022/12/20 08:20:26;;;;;;;72.17;24.00;;;;;;;;;;6185865;23;20221;-90
2022/12/20 08:23:31;;;;;;;74.70;25.37;;;;;;;;;;6182524;23;20537;-90
2022/12/20 08:26:38;;;;;;;70.87;24.33;;;;;;;;;;6184087;23;20199;-88
2022/12/20 08:29:43;;;;;;;65.40;22.90;;;;;;;;;;6184318;23;20204;-89
2022/12/20 08:32:54;;;;;;;79.63;25.77;;;;;;;;;;6185294;23;20200;-91
2022/12/20 08:36:02;;;;;;;80.83;26.13;;;;;;;;;;6185514;23;20196;-90
2022/12/20 08:39:08;;;;;;;78.73;25.53;;;;;;;;;;6183589;23;20188;-91
2022/12/20 08:42:13;;;;;;;76.37;25.60;;;;;;;;;;6183501;23;20217;-91
2022/12/20 08:45:19;;;;;;;70.30;23.87;;;;;;;;;;6185352;23;20212;-88
2022/12/20 08:48:24;;;;;;;79.77;25.10;;;;;;;;;;6187291;23;20167;-90
2022/12/20 08:51:31;;;;;;;74.93;25.37;;;;;;;;;;6187103;23;20252;-88
2022/12/20 08:54:37;;;;;;;74.37;24.90;;;;;;;;;;6205163;23;20212;-89
2022/12/20 08:57:42;;;;;;;82.00;28.10;;;;;;;;;;6187596;23;20230;-88
2022/12/20 09:00:48;;;;;;;80.30;25.90;;;;;;;;;;6185352;23;20216;-89
2022/12/20 09:03:53;;;;;;;83.67;27.27;;;;;;;;;;6185766;23;20192;-90
2022/12/20 09:07:01;;;;;;;84.63;26.57;;;;;;;;;;6187439;23;20495;-89
2022/12/20 09:10:07;;;;;;;89.60;27.43;;;;;;;;;;6184026;23;20171;-91
2022/12/20 09:13:13;;;;;;;82.70;26.27;;;;;;;;;;6184049;23;20196;-88
2022/12/20 09:16:23;;;;;;;84.83;26.53;;;;;;;;;;6185089;23;20180;-91
2022/12/20 09:19:29;;;;;;;78.03;25.10;;;;;;;;;;6186299;23;20172;-89
2022/12/20 09:22:37;;;;;;;88.30;27.27;;;;;;;;;;6183381;23;20172;-89
2022/12/20 09:25:42;;;;;;;73.93;24.07;;;;;;;;;;6185102;23;20215;-91
2022/12/20 09:28:48;;;;;;;76.60;25.07;;;;;;;;;;6183313;23;20152;-90
2022/12/20 09:31:54;;;;;;;74.13;25.37;;;;;;;;;;6182870;23;20207;-89
2022/12/20 09:35:00;;;;;;;71.37;24.07;;;;;;;;;;6184330;23;20168;-89
2022/12/20 09:38:06;;;;;;;71.77;25.47;;;;;;;;;;6184021;23;20187;-90
2022/12/20 09:41:19;;;;;;;78.97;24.63;;;;;;;;;;6184471;23;20155;-89
2022/12/20 09:44:26;;;;;;;77.43;25.17;;;;;;;;;;6188885;23;20180;-89
2022/12/20 09:47:34;;;;;;;75.03;25.30;;;;;;;;;;6185076;23;20175;-90
2022/12/20 09:50:47;;;;;;;81.97;26.40;;;;;;;;;;6186255;23;20171;-89
2022/12/20 09:54:01;;;;;;;82.43;26.43;;;;;;;;;;6184587;23;20288;-89
2022/12/20 09:57:15;;;;;;;84.07;25.83;;;;;;;;;;6185291;23;20235;-89
2022/12/20 10:00:22;;;;;;;80.70;25.57;;;;;;;;;;6185366;23;20230;-90
2022/12/20 10:03:30;;;;;;;85.13;25.57;;;;;;;;;;6185370;23;20248;-93
2022/12/20 10:06:43;;;;;;;73.70;25.60;;;;;;;;;;6186922;23;20167;-88
2022/12/20 10:10:04;;;;;;;81.13;25.70;;;;;;;;;;6186760;23;20207;-91
2022/12/20 10:13:16;;;;;;;84.70;27.03;;;;;;;;;;6185909;23;20195;-87
2022/12/20 10:16:28;;;;;;;79.63;26.13;;;;;;;;;;6186497;23;20243;-87
2022/12/20 10:19:53;;;;;;;75.87;24.53;;;;;;;;;;6184806;23;20167;-88
2022/12/20 10:23:01;;;;;;;81.83;26.80;;;;;;;;;;6184858;23;20217;-87
2022/12/20 10:26:10;;;;;;;72.00;24.80;;;;;;;;;;6183181;23;20156;-87
2022/12/20 10:29:15;;;;;;;75.37;25.23;;;;;;;;;;6183494;23;20236;-89
2022/12/20 10:32:22;;;;;;;78.87;24.87;;;;;;;;;;6183574;23;20179;-93
2022/12/20 10:35:30;;;;;;;78.80;25.33;;;;;;;;;;6184560;23;20256;-89
2022/12/20 10:38:44;;;;;;;78.47;24.53;;;;;;;;;;6184017;23;20199;-88
2022/12/20 10:41:51;;;;;;;83.47;25.43;;;;;;;;;;6183414;23;20179;-87
2022/12/20 10:44:56;;;;;;;67.27;23.00;;;;;;;;;;6182743;23;20176;-90
2022/12/20 10:48:02;;;;;;;85.90;25.43;;;;;;;;;;6184012;23;20186;-89
2022/12/20 10:51:15;;;;;;;77.77;25.47;;;;;;;;;;6184367;23;20206;-88
2022/12/20 10:54:23;;;;;;;81.50;25.60;;;;;;;;;;6182446;23;20163;-90
2022/12/20 11:00:50;;;;;;;79.77;26.87;;;;;;;;;;6186656;23;20175;-88
2022/12/20 11:04:00;;;;;;;79.23;26.30;;;;;;;;;;6185988;23;20191;-89
2022/12/20 11:07:22;;;;;;;88.37;28.40;;;;;;;;;;6184393;23;20211;-90
2022/12/20 11:10:28;;;;;;;84.77;26.97;;;;;;;;;;6183863;23;20167;-88
2022/12/20 11:13:36;;;;;;;83.83;26.73;;;;;;;;;;6185315;23;20199;-90
2022/12/20 11:16:41;;;;;;;78.67;25.03;;;;;;;;;;6182854;23;20164;-92
2022/12/20 11:19:53;;;;;;;85.77;26.20;;;;;;;;;;6181535;23;20163;-87
2022/12/20 11:23:03;;;;;;;73.80;24.57;;;;;;;;;;6181847;23;20329;-89
2022/12/20 11:26:17;;;;;;;75.97;24.83;;;;;;;;;;6182258;23;20176;-89
2022/12/20 11:29:33;;;;;;;79.37;26.47;;;;;;;;;;6180959;23;20168;-91
2022/12/20 11:32:43;;;;;;;81.67;25.27;;;;;;;;;;6181991;23;20373;-89
2022/12/20 11:35:53;;;;;;;84.60;27.40;;;;;;;;;;6199513;23;20246;-90
2022/12/20 11:39:00;;;;;;;80.07;25.87;;;;;;;;;;6183704;23;20167;-92
2022/12/20 11:42:09;;;;;;;90.27;28.13;;;;;;;;;;6181484;23;20167;-91
2022/12/20 11:45:18;;;;;;;89.40;28.70;;;;;;;;;;6184209;23;20172;-88
2022/12/20 11:48:38;;;;;;;82.77;26.07;;;;;;;;;;6185053;23;20167;-86
2022/12/20 11:51:49;;;;;;;77.13;25.67;;;;;;;;;;6202337;23;20180;-88
2022/12/20 11:54:59;;;;;;;89.60;28.50;;;;;;;;;;6181700;23;20254;-90
2022/12/20 11:58:05;;;;;;;87.03;26.60;;;;;;;;;;6181711;23;20176;-89
2022/12/20 12:01:14;;;;;;;87.03;27.40;;;;;;;;;;6180992;23;20264;-90
2022/12/20 12:04:22;;;;;;;89.47;29.80;;;;;;;;;;6181788;23;20240;-88
2022/12/20 12:07:31;;;;;;;94.00;28.20;;;;;;;;;;6183054;23;20148;-91
2022/12/20 12:10:38;;;;;;;87.97;28.10;;;;;;;;;;6183836;23;20172;-89
2022/12/20 12:13:45;;;;;;;87.03;28.27;;;;;;;;;;6184433;23;20187;-88
2022/12/20 12:16:54;;;;;;;94.50;28.03;;;;;;;;;;6184006;23;20179;-86
2022/12/20 12:20:05;;;;;;;83.10;27.33;;;;;;;;;;6184790;23;20498;-86
2022/12/20 12:23:14;;;;;;;91.57;28.50;;;;;;;;;;6183404;23;20188;-88
2022/12/20 12:26:21;;;;;;;84.23;26.30;;;;;;;;;;6183531;23;20692;-88
2022/12/20 12:29:29;;;;;;;88.57;29.07;;;;;;;;;;6185495;23;20164;-88
2022/12/20 12:32:40;;;;;;;91.13;28.73;;;;;;;;;;6186013;23;20220;-87
2022/12/20 12:36:01;;;;;;;89.70;29.13;;;;;;;;;;6186361;23;20156;-89
2022/12/20 12:39:25;;;;;;;91.50;29.87;;;;;;;;;;6203977;23;20176;-90
2022/12/20 12:42:54;;;;;;;96.53;29.83;;;;;;;;;;6186300;23;20245;-92
2022/12/20 12:46:01;;;;;;;103.87;31.30;;;;;;;;;;6182676;23;20175;-88
2022/12/20 12:49:11;;;;;;;93.63;29.70;;;;;;;;;;6185946;23;20171;-88
2022/12/20 12:52:35;;;;;;;94.00;28.73;;;;;;;;;;6185078;23;20497;-88
2022/12/20 12:55:42;;;;;;;87.00;28.30;;;;;;;;;;6184462;23;20295;-86
2022/12/20 12:59:09;;;;;;;89.70;27.73;;;;;;;;;;6188209;23;20652;-88
2022/12/20 13:02:42;;;;;;;88.53;29.07;;;;;;;;;;6184821;23;20227;-89
2022/12/20 13:05:48;;;;;;;97.67;30.43;;;;;;;;;;6185135;23;20215;-90
2022/12/20 13:09:11;;;;;;;89.00;27.77;;;;;;;;;;6184586;23;20164;-90
2022/12/20 13:12:49;;;;;;;92.33;27.13;;;;;;;;;;6184426;23;20167;-89
2022/12/20 13:16:10;;;;;;;89.53;27.97;;;;;;;;;;6183127;23;20683;-88
2022/12/20 13:19:17;;;;;;;97.47;31.67;;;;;;;;;;6183688;23;20240;-88
2022/12/20 13:22:25;;;;;;;85.23;27.40;;;;;;;;;;6184000;23;20180;-90
2022/12/20 13:25:31;;;;;;;93.17;28.57;;;;;;;;;;6185205;23;20261;-90
2022/12/20 13:28:46;;;;;;;97.30;28.03;;;;;;;;;;6184433;23;20180;-90
2022/12/20 13:31:51;;;;;;;88.60;29.33;;;;;;;;;;6185861;23;20155;-87
2022/12/20 13:34:57;;;;;;;102.17;30.93;;;;;;;;;;6184109;23;20164;-88
2022/12/20 13:38:05;;;;;;;89.40;26.90;;;;;;;;;;6185910;23;20214;-88
2022/12/20 13:41:13;;;;;;;97.93;28.63;;;;;;;;;;6186205;23;20554;-88
2022/12/20 13:44:33;;;;;;;94.77;27.73;;;;;;;;;;6185440;23;20619;-89
2022/12/20 13:47:41;;;;;;;105.50;28.10;;;;;;;;;;6184649;23;20175;-88
2022/12/20 13:50:49;;;;;;;88.40;28.00;;;;;;;;;;6186182;23;20164;-86
2022/12/20 13:53:57;;;;;;;88.57;28.17;;;;;;;;;;6202345;23;20203;-90
2022/12/20 13:57:06;;;;;;;90.33;28.20;;;;;;;;;;6184520;23;20679;-90
2022/12/20 14:00:16;;;;;;;94.07;30.47;;;;;;;;;;6182290;23;20175;-87
2022/12/20 14:03:33;;;;;;;106.17;32.70;;;;;;;;;;6185364;23;20227;-86
2022/12/20 14:06:41;;;;;;;101.50;32.43;;;;;;;;;;6202538;23;20162;-88
2022/12/20 14:09:48;;;;;;;96.07;28.67;;;;;;;;;;6182779;23;20495;-88
2022/12/20 14:12:54;;;;;;;93.10;27.90;;;;;;;;;;6183806;23;20200;-88
2022/12/20 14:16:07;;;;;;;101.83;30.63;;;;;;;;;;6185412;23;20211;-87
2022/12/20 14:19:15;;;;;;;93.10;28.33;;;;;;;;;;6184980;23;20180;-88
2022/12/20 14:22:20;;;;;;;98.30;29.80;;;;;;;;;;6182824;23;20187;-88
2022/12/20 14:25:31;;;;;;;101.73;28.37;;;;;;;;;;6185944;23;20171;-89
2022/12/20 14:28:38;;;;;;;98.30;28.90;;;;;;;;;;6182979;23;20667;-88
2022/12/20 14:31:44;;;;;;;103.13;29.13;;;;;;;;;;6183931;23;20164;-91
2022/12/20 14:34:52;;;;;;;93.33;28.27;;;;;;;;;;6184557;23;20194;-88
2022/12/20 14:38:01;;;;;;;90.57;27.77;;;;;;;;;;6184059;23;20195;-88
2022/12/20 14:41:28;;;;;;;104.13;29.83;;;;;;;;;;6185727;23;20172;-90
2022/12/20 14:44:34;;;;;;;89.27;26.70;;;;;;;;;;6182648;23;20164;-88
2022/12/20 14:47:40;;;;;;;98.03;29.47;;;;;;;;;;6181940;23;20160;-88
2022/12/20 14:50:52;;;;;;;102.20;30.20;;;;;;;;;;6183709;23;20219;-89
2022/12/20 14:53:58;;;;;;;102.93;29.23;;;;;;;;;;6183094;23;20195;-87
2022/12/20 14:57:11;;;;;;;104.63;31.10;;;;;;;;;;6185243;23;20176;-88
2022/12/20 15:00:21;;;;;;;100.10;29.37;;;;;;;;;;6182933;23;20179;-88
2022/12/20 15:03:27;;;;;;;109.83;31.20;;;;;;;;;;6183110;23;20179;-87
2022/12/20 15:06:33;;;;;;;109.67;30.80;;;;;;;;;;6185327;23;20191;-89
2022/12/20 15:13:00;;;;;;;93.47;28.30;;;;;;;;;;6198780;23;20184;-86
2022/12/20 15:16:06;;;;;;;103.17;28.27;;;;;;;;;;6185677;23;20255;-86
2022/12/20 15:19:12;;;;;;;98.47;26.40;;;;;;;;;;6186978;23;20167;-89
2022/12/20 15:22:20;;;;;;;101.67;30.37;;;;;;;;;;6185629;23;20233;-87
2022/12/20 15:25:25;;;;;;;108.03;31.33;;;;;;;;;;6185346;23;20260;-89
2022/12/20 15:28:33;;;;;;;100.50;30.80;;;;;;;;;;6183842;23;20168;-88
2022/12/20 15:31:38;;;;;;;102.67;30.20;;;;;;;;;;6185211;23;20156;-90
2022/12/20 15:34:44;;;;;;;125.53;33.47;;;;;;;;;;6185585;23;20199;-89
2022/12/20 15:37:49;;;;;;;118.73;33.83;;;;;;;;;;6184844;23;20600;-88
2022/12/20 15:40:56;;;;;;;103.93;30.10;;;;;;;;;;6185850;23;20172;-86
2022/12/20 15:44:07;;;;;;;98.43;29.93;;;;;;;;;;6183730;23;20215;-89
2022/12/20 15:47:15;;;;;;;108.00;30.67;;;;;;;;;;6184657;23;20172;-90
2022/12/20 15:50:20;;;;;;;106.27;31.07;;;;;;;;;;6184931;23;20171;-88
2022/12/20 15:53:27;;;;;;;123.17;34.33;;;;;;;;;;6183930;23;20269;-87
2022/12/20 15:56:35;;;;;;;120.13;34.10;;;;;;;;;;6183920;23;20692;-90
2022/12/20 15:59:41;;;;;;;116.77;34.60;;;;;;;;;;6201456;23;20172;-88
2022/12/20 16:02:51;;;;;;;131.90;34.60;;;;;;;;;;6184704;23;20176;-88
2022/12/20 16:05:57;;;;;;;119.87;34.47;;;;;;;;;;6185330;23;20172;-89
2022/12/20 16:09:04;;;;;;;124.10;34.47;;;;;;;;;;6186399;23;20159;-88
2022/12/20 16:12:13;;;;;;;102.27;32.53;;;;;;;;;;6185093;23;20172;-87
2022/12/20 16:15:22;;;;;;;99.80;29.37;;;;;;;;;;6183152;23;20320;-86
2022/12/20 16:18:29;;;;;;;107.70;31.40;;;;;;;;;;6187846;23;20167;-88
2022/12/20 16:21:38;;;;;;;107.23;31.67;;;;;;;;;;6186913;23;20267;-89
2022/12/20 16:24:44;;;;;;;135.55;43.40;;;;;;;;;;6183099;23;20394;-88
2022/12/20 16:27:56;;;;;;;104.23;33.13;;;;;;;;;;6187956;23;20254;-89
2022/12/20 16:31:10;;;;;;;111.37;33.90;;;;;;;;;;6185651;23;20199;-87
2022/12/20 16:34:18;;;;;;;101.13;32.03;;;;;;;;;;6185216;23;20668;-87
2022/12/20 16:37:23;;;;;;;107.77;31.73;;;;;;;;;;6185278;23;20234;-88
2022/12/20 16:40:29;;;;;;;107.47;32.23;;;;;;;;;;6186865;23;20192;-89
2022/12/20 16:43:38;;;;;;;101.87;32.27;;;;;;;;;;6184049;23;20167;-89
2022/12/20 16:46:45;;;;;;;122.77;36.47;;;;;;;;;;6203334;23;20232;-89
2022/12/20 16:49:52;;;;;;;112.57;32.10;;;;;;;;;;6185153;23;20155;-91
2022/12/20 16:52:58;;;;;;;101.67;30.73;;;;;;;;;;6184925;23;20172;-89
2022/12/20 16:56:04;;;;;;;99.80;28.77;;;;;;;;;;6185404;23;20221;-88
2022/12/20 16:59:09;;;;;;;89.43;26.87;;;;;;;;;;6185897;23;20619;-90
2022/12/20 17:02:21;;;;;;;99.17;30.00;;;;;;;;;;6186533;23;20256;-88
2022/12/20 17:05:30;;;;;;;102.30;29.90;;;;;;;;;;6184671;23;20163;-87
2022/12/20 17:08:35;;;;;;;97.27;28.37;;;;;;;;;;6182906;23;20245;-89
2022/12/20 17:11:40;;;;;;;92.73;28.23;;;;;;;;;;6185396;23;20247;-89
2022/12/20 17:14:46;;;;;;;93.80;29.03;;;;;;;;;;6182510;23;20191;-90
2022/12/20 17:17:51;;;;;;;88.27;28.00;;;;;;;;;;6183976;23;20248;-88
2022/12/20 17:21:01;;;;;;;100.23;28.87;;;;;;;;;;6184894;23;20210;-87
2022/12/20 17:24:07;;;;;;;106.90;31.97;;;;;;;;;;6182066;23;20160;-90
2022/12/20 17:27:12;;;;;;;96.90;30.07;;;;;;;;;;6185700;23;20171;-88
2022/12/20 17:30:18;;;;;;;109.87;31.03;;;;;;;;;;6186475;23;20171;-88
2022/12/20 17:33:24;;;;;;;97.87;28.93;;;;;;;;;;6186420;23;20163;-87
2022/12/20 17:36:31;;;;;;;104.43;30.53;;;;;;;;;;6186905;23;20219;-90
2022/12/20 17:39:36;;;;;;;101.53;29.53;;;;;;;;;;6184862;23;20164;-87
2022/12/20 17:42:42;;;;;;;109.90;31.70;;;;;;;;;;6186685;23;20156;-88
2022/12/20 17:45:47;;;;;;;111.40;31.27;;;;;;;;;;6185431;23;20256;-87
2022/12/20 17:48:52;;;;;;;107.53;31.07;;;;;;;;;;6201913;23;20188;-86
2022/12/20 17:51:59;;;;;;;109.83;33.70;;;;;;;;;;6186203;23;20168;-88
2022/12/20 17:55:04;;;;;;;111.53;33.23;;;;;;;;;;6182774;23;20208;-86
2022/12/20 17:58:10;;;;;;;106.23;32.47;;;;;;;;;;6185236;23;20175;-89
2022/12/20 18:01:18;;;;;;;111.67;33.23;;;;;;;;;;6186924;23;20176;-91
2022/12/20 18:04:25;;;;;;;112.30;32.90;;;;;;;;;;6186496;23;20164;-88
2022/12/20 18:07:32;;;;;;;106.73;32.23;;;;;;;;;;6186905;23;20192;-89
2022/12/20 18:10:37;;;;;;;101.37;31.63;;;;;;;;;;6184056;23;20237;-88
2022/12/20 18:13:43;;;;;;;99.90;30.73;;;;;;;;;;6185134;23;20232;-90
2022/12/20 18:16:48;;;;;;;114.40;31.37;;;;;;;;;;6183482;23;20167;-88
2022/12/20 18:19:54;;;;;;;98.90;31.63;;;;;;;;;;6184249;23;20176;-88
2022/12/20 18:23:01;;;;;;;99.43;30.27;;;;;;;;;;6184303;23;20171;-86
2022/12/20 18:26:09;;;;;;;90.77;28.47;;;;;;;;;;6184330;23;20175;-90
2022/12/20 18:29:15;;;;;;;98.93;30.40;;;;;;;;;;6184738;23;20150;-89
2022/12/20 18:32:22;;;;;;;93.53;29.13;;;;;;;;;;6185164;23;20201;-89
2022/12/20 18:35:28;;;;;;;94.80;28.60;;;;;;;;;;6185981;23;20267;-89
2022/12/20 18:38:35;;;;;;;116.70;30.40;;;;;;;;;;6185609;23;20336;-88